createdAt,value
2023-01-19T00:01:36.603Z,99669.50
2023-01-19T00:04:03.094Z,99662.63
2023-01-19T00:06:29.611Z,99664.34
2023-01-19T00:08:55.979Z,99661.75
2023-01-19T00:11:23.096Z,99669.44
2023-01-19T00:13:50.610Z,99665.06
2023-01-19T00:16:18.262Z,99665.91
2023-01-19T00:18:45.662Z,99654.66
2023-01-19T00:21:14.781Z,99671.84
2023-01-19T00:23:42.330Z,99672.66
2023-01-19T00:26:08.787Z,99665.75
2023-01-19T00:28:35.175Z,99649.38
2023-01-19T00:31:01.641Z,99654.47
2023-01-19T00:33:28.234Z,99658.78
2023-01-19T00:35:57.369Z,99651.91
2023-01-19T00:38:23.774Z,99649.31
2023-01-19T00:40:50.328Z,99651.88
2023-01-19T00:43:16.707Z,99659.56
2023-01-19T00:45:43.133Z,99651.00
2023-01-19T00:48:09.629Z,99650.09
2023-01-19T00:50:36.304Z,99652.59
2023-01-19T00:53:03.340Z,99656.81
2023-01-19T00:55:31.378Z,99653.38
2023-01-19T00:57:58.147Z,99664.53
2023-01-19T01:00:25.051Z,99662.03
2023-01-19T01:02:53.109Z,99662.91
2023-01-19T01:05:19.819Z,99661.13
2023-01-19T01:07:49.395Z,99661.09
2023-01-19T01:10:25.139Z,99661.94
2023-01-19T01:12:56.360Z,99675.72
2023-01-19T01:15:27.778Z,99666.28
2023-01-19T01:17:54.840Z,99667.09
2023-01-19T01:20:26.979Z,99661.06
2023-01-19T01:22:54.254Z,99664.50
2023-01-19T01:25:23.310Z,99666.19
2023-01-19T01:27:50.134Z,99680.75
2023-01-19T01:30:19.669Z,99666.16
2023-01-19T01:32:46.221Z,99673.03
2023-01-19T01:35:13.792Z,99680.69
2023-01-19T01:37:40.436Z,99661.78
2023-01-19T01:40:07.471Z,99672.94
2023-01-19T01:42:35.324Z,99666.81
2023-01-19T01:45:07.432Z,99665.84
2023-01-19T01:47:42.636Z,99670.19
2023-01-19T01:50:17.767Z,99668.50
2023-01-19T01:53:06.572Z,99661.59
2023-01-19T01:55:38.009Z,99656.44
2023-01-19T01:58:05.875Z,99659.88
2023-01-19T02:00:51.028Z,99655.53
2023-01-19T02:03:17.580Z,99648.59
2023-01-19T02:05:45.546Z,99650.31
2023-01-19T02:08:36.872Z,99651.97
2023-01-19T02:11:22.209Z,99649.38
2023-01-19T02:13:48.972Z,99647.72
2023-01-19T02:16:16.923Z,99650.25
2023-01-19T02:18:45.210Z,99644.22
2023-01-19T02:21:31.839Z,99643.38
2023-01-19T02:24:01.522Z,99642.53
2023-01-19T02:26:31.737Z,99641.63
2023-01-19T02:29:01.952Z,99650.22
2023-01-19T02:31:30.643Z,99643.34
2023-01-19T02:33:59.214Z,99641.66
2023-01-19T02:36:30.664Z,99643.34
2023-01-19T02:39:00.192Z,99633.91
2023-01-19T02:41:30.896Z,99634.78
2023-01-19T02:43:58.818Z,99643.25
2023-01-19T02:46:25.742Z,99644.97
2023-01-19T02:48:52.284Z,99637.25
2023-01-19T02:51:24.030Z,99640.72
2023-01-19T02:54:08.737Z,99634.66
2023-01-19T02:56:50.577Z,99645.84
2023-01-19T02:59:46.951Z,99637.22
2023-01-19T03:02:23.921Z,99633.81
2023-01-19T03:04:59.663Z,99633.69
2023-01-19T03:07:52.072Z,99637.03
2023-01-19T03:10:42.084Z,99646.66
2023-01-19T03:13:23.671Z,99648.41
2023-01-19T03:15:55.469Z,99641.41
2023-01-19T03:18:27.006Z,99652.56
2023-01-19T03:20:57.421Z,99643.13
2023-01-19T03:23:28.656Z,99638.88
2023-01-19T03:25:57.689Z,99634.59
2023-01-19T03:28:26.614Z,99639.69
2023-01-19T03:30:58.637Z,99652.63
2023-01-19T03:33:31.912Z,99640.56
2023-01-19T03:36:04.213Z,99635.41
2023-01-19T03:38:35.119Z,99665.47
2023-01-19T03:41:06.700Z,99655.19
2023-01-19T03:43:35.340Z,99642.25
2023-01-19T03:46:04.385Z,99643.97
2023-01-19T03:48:31.513Z,99630.22
2023-01-19T03:50:58.179Z,99649.13
2023-01-19T03:53:24.581Z,99636.25
2023-01-19T03:55:52.031Z,99641.41
2023-01-19T03:58:18.380Z,99654.19
2023-01-19T04:00:44.881Z,99643.84
2023-01-19T04:03:14.823Z,99645.56
2023-01-19T04:05:41.675Z,99649.91
2023-01-19T04:08:08.121Z,99643.03
2023-01-19T04:10:34.631Z,99650.84
2023-01-19T04:13:02.481Z,99652.63
2023-01-19T04:15:29.690Z,99655.25
2023-01-19T04:18:01.045Z,99640.59
2023-01-19T04:20:28.238Z,99642.28
2023-01-19T04:22:58.691Z,99650.03
2023-01-19T04:25:25.191Z,99653.44
2023-01-19T04:27:53.084Z,99646.50
2023-01-19T04:30:19.927Z,99632.78
2023-01-19T04:32:46.786Z,99637.09
2023-01-19T04:35:13.168Z,99640.50
2023-01-19T04:37:40.158Z,99637.88
2023-01-19T04:40:07.364Z,99653.31
2023-01-19T04:42:33.894Z,99641.31
2023-01-19T04:45:00.271Z,99644.72
2023-01-19T04:47:26.904Z,99644.78
2023-01-19T04:49:53.276Z,99634.47
2023-01-19T04:52:20.278Z,99633.59
2023-01-19T04:54:46.631Z,99635.31
2023-01-19T04:57:13.079Z,99649.13
2023-01-19T04:59:39.488Z,99648.31
2023-01-19T05:02:06.048Z,99654.28
2023-01-19T05:04:32.587Z,99658.53
2023-01-19T05:06:58.957Z,99655.06
2023-01-19T05:09:26.858Z,99660.19
2023-01-19T05:11:53.321Z,99665.38
2023-01-19T05:14:19.936Z,99662.75
2023-01-19T05:16:46.291Z,99665.28
2023-01-19T05:19:12.844Z,99677.25
2023-01-19T05:21:39.429Z,99667.84
2023-01-19T05:24:06.404Z,99682.56
2023-01-19T05:26:32.830Z,99667.13
2023-01-19T05:28:59.207Z,99681.66
2023-01-19T05:31:25.859Z,99675.69
2023-01-19T05:33:52.528Z,99674.00
2023-01-19T05:36:18.887Z,99671.44
2023-01-19T05:38:45.278Z,99668.81
2023-01-19T05:41:11.652Z,99672.22
2023-01-19T05:43:38.065Z,99674.03
2023-01-19T05:46:05.275Z,99674.88
2023-01-19T05:48:31.671Z,99683.44
2023-01-19T05:50:59.288Z,99678.31
2023-01-19T05:53:26.340Z,99675.78
2023-01-19T05:55:52.697Z,99674.94
2023-01-19T05:58:19.103Z,99676.63
2023-01-19T06:00:45.616Z,99676.63
2023-01-19T06:03:12.459Z,99673.16
2023-01-19T06:05:39.417Z,99674.91
2023-01-19T06:08:06.012Z,99680.06
2023-01-19T06:10:32.381Z,99674.00
2023-01-19T06:12:59.368Z,99670.53
2023-01-19T06:15:26.037Z,99675.72
2023-01-19T06:17:52.424Z,99687.75
2023-01-19T06:20:18.952Z,99673.13
2023-01-19T06:22:45.508Z,99681.66
2023-01-19T06:25:12.449Z,99678.13
2023-01-19T06:27:39.870Z,99685.84
2023-01-19T06:30:06.847Z,99679.03
2023-01-19T06:32:33.236Z,99679.97
2023-01-19T06:34:59.696Z,99694.72
2023-01-19T06:37:28.207Z,99683.53
2023-01-19T06:39:54.834Z,99680.03
2023-01-19T06:42:21.760Z,99698.06
2023-01-19T06:44:48.168Z,99683.44
2023-01-19T06:47:16.464Z,99698.91
2023-01-19T06:49:43.040Z,99696.28
2023-01-19T06:52:15.913Z,99694.53
2023-01-19T06:54:43.419Z,99707.41
2023-01-19T06:57:12.228Z,99712.59
2023-01-19T06:59:39.015Z,99712.63
2023-01-19T07:02:27.043Z,99722.16
2023-01-19T07:04:53.540Z,99729.06
2023-01-19T07:07:20.788Z,99731.66
2023-01-19T07:09:47.224Z,99742.84
2023-01-19T07:12:14.506Z,99745.47
2023-01-19T07:14:40.960Z,99742.81
2023-01-19T07:17:07.695Z,99751.41
2023-01-19T07:19:35.300Z,99751.31
2023-01-19T07:22:03.025Z,99748.66
2023-01-19T07:24:30.595Z,99753.06
2023-01-19T07:26:56.952Z,99756.50
2023-01-19T07:29:23.450Z,99763.34
2023-01-19T07:31:50.064Z,99769.31
2023-01-19T07:34:16.953Z,99770.13
2023-01-19T07:36:43.995Z,99781.25
2023-01-19T07:39:10.454Z,99789.09
2023-01-19T07:41:36.852Z,99791.72
2023-01-19T07:44:06.573Z,99791.81
2023-01-19T07:46:32.972Z,99808.13
2023-01-19T07:48:59.335Z,99796.09
2023-01-19T07:51:25.858Z,99792.66
2023-01-19T07:53:52.432Z,99795.25
2023-01-19T07:56:18.843Z,99804.78
2023-01-19T07:58:45.274Z,99799.63
2023-01-19T08:01:13.381Z,99810.72
2023-01-19T08:03:40.190Z,99815.03
2023-01-19T08:06:07.345Z,99827.94
2023-01-19T08:08:34.437Z,99826.31
2023-01-19T08:11:00.966Z,99832.28
2023-01-19T08:13:27.483Z,99832.25
2023-01-19T08:15:54.429Z,99837.28
2023-01-19T08:18:21.239Z,99826.91
2023-01-19T08:20:47.790Z,99834.69
2023-01-19T08:23:17.982Z,99828.69
2023-01-19T08:25:45.171Z,99830.31
2023-01-19T08:28:16.683Z,99830.25
2023-01-19T08:30:44.861Z,99825.03
2023-01-19T08:33:12.821Z,99837.84
2023-01-19T08:35:47.246Z,99834.41
2023-01-19T08:38:13.711Z,99834.41
2023-01-19T08:40:41.915Z,99838.69
2023-01-19T08:43:11.290Z,99837.84
2023-01-19T08:45:46.411Z,99844.75
2023-01-19T08:48:13.515Z,99842.19
2023-01-19T08:50:40.160Z,99849.91
2023-01-19T08:53:07.292Z,99855.13
2023-01-19T08:55:36.063Z,99857.63
2023-01-19T08:58:04.426Z,99861.03
2023-01-19T09:00:33.472Z,99853.22
2023-01-19T09:03:03.458Z,99863.47
2023-01-19T09:05:35.757Z,99864.34
2023-01-19T09:08:08.231Z,99872.94
2023-01-19T09:10:36.133Z,99868.59
2023-01-19T09:13:07.992Z,99869.50
2023-01-19T09:15:37.320Z,99873.84
2023-01-19T09:18:10.248Z,99868.75
2023-01-19T09:20:38.654Z,99873.00
2023-01-19T09:23:06.149Z,99876.50
2023-01-19T09:25:32.790Z,99874.84
2023-01-19T09:28:00.338Z,99886.06
2023-01-19T09:30:27.855Z,99892.19
2023-01-19T09:32:54.461Z,99895.66
2023-01-19T09:35:21.657Z,99903.34
2023-01-19T09:37:48.456Z,99893.84
2023-01-19T09:40:18.601Z,99901.66
2023-01-19T09:42:51.865Z,99912.91
2023-01-19T09:45:26.949Z,99905.16
2023-01-19T09:47:54.441Z,99908.59
2023-01-19T09:50:27.648Z,99916.34
2023-01-19T09:53:13.640Z,99912.09
2023-01-19T09:55:41.942Z,99924.13
2023-01-19T09:58:19.007Z,99918.91
2023-01-19T10:00:52.971Z,99926.63
2023-01-19T10:03:20.650Z,99923.97
2023-01-19T10:05:52.737Z,99929.13
2023-01-19T10:08:21.923Z,99929.84
2023-01-19T10:10:53.714Z,99932.41
2023-01-19T10:13:34.242Z,99929.91
2023-01-19T10:16:21.083Z,99936.78
2023-01-19T10:18:51.513Z,99937.59
2023-01-19T10:21:23.128Z,99933.25
2023-01-19T10:23:57.183Z,99935.78
2023-01-19T10:26:26.984Z,99935.72
2023-01-19T10:28:57.802Z,99946.06
2023-01-19T10:31:24.894Z,99940.09
2023-01-19T10:33:52.416Z,99951.25
2023-01-19T10:36:21.872Z,99946.09
2023-01-19T10:38:48.414Z,99950.41
2023-01-19T10:41:19.556Z,99949.59
2023-01-19T10:43:47.612Z,99951.31
2023-01-19T10:46:33.311Z,99953.88
2023-01-19T10:49:00.134Z,99953.81
2023-01-19T10:51:27.597Z,99959.81
2023-01-19T10:53:57.878Z,99960.69
2023-01-19T10:56:32.536Z,99957.25
2023-01-19T10:59:00.850Z,99967.59
2023-01-19T11:01:30.484Z,99971.13
2023-01-19T11:04:05.629Z,99972.88
2023-01-19T11:06:34.334Z,99967.63
2023-01-19T11:09:11.518Z,99975.28
2023-01-19T11:11:50.013Z,99970.94
2023-01-19T11:14:20.768Z,99965.88
2023-01-19T11:16:55.977Z,99970.13
2023-01-19T11:19:29.707Z,99977.81
2023-01-19T11:22:15.170Z,99970.13
2023-01-19T11:24:44.190Z,99971.00
2023-01-19T11:27:10.560Z,99971.84
2023-01-19T11:29:37.161Z,99973.50
2023-01-19T11:32:19.016Z,99973.56
2023-01-19T11:34:45.472Z,99968.47
2023-01-19T11:37:17.954Z,99974.47
2023-01-19T11:39:50.523Z,99980.50
2023-01-19T11:42:18.706Z,99974.47
2023-01-19T11:44:55.470Z,99974.47
2023-01-19T11:47:34.037Z,99973.59
2023-01-19T11:50:09.753Z,99976.06
2023-01-19T11:52:43.209Z,99979.53
2023-01-19T11:55:36.729Z,99976.97
2023-01-19T11:58:04.944Z,99985.56
2023-01-19T12:00:46.325Z,99981.38
2023-01-19T12:03:35.682Z,99973.63
2023-01-19T12:06:12.163Z,99983.09
2023-01-19T12:09:02.985Z,99979.66
2023-01-19T12:11:37.519Z,99986.53
2023-01-19T12:14:06.875Z,99984.81
2023-01-19T12:16:37.863Z,99987.34
2023-01-19T12:19:10.745Z,99983.84
2023-01-19T12:21:37.933Z,99981.13
2023-01-19T12:24:16.311Z,99994.88
2023-01-19T12:26:54.400Z,99991.41
2023-01-19T12:29:24.937Z,99992.22
2023-01-19T12:32:13.191Z,99988.69
2023-01-19T12:34:51.769Z,99993.00
2023-01-19T12:37:28.421Z,99994.69
2023-01-19T12:40:05.474Z,99994.59
2023-01-19T12:42:33.839Z,100000.66
2023-01-19T12:45:25.525Z,99992.88
2023-01-19T12:47:56.204Z,99991.09
2023-01-19T12:50:25.899Z,100002.28
2023-01-19T12:53:02.603Z,99996.28
2023-01-19T12:55:33.182Z,99999.69
2023-01-19T12:58:07.138Z,100009.06
2023-01-19T13:00:42.832Z,100009.84
2023-01-19T13:03:18.271Z,100023.75
2023-01-19T13:05:44.611Z,100022.88
2023-01-19T13:08:13.989Z,100025.59
2023-01-19T13:11:00.250Z,100022.94
2023-01-19T13:13:33.608Z,100023.75
2023-01-19T13:16:20.198Z,100034.06
2023-01-19T13:18:57.507Z,100023.84
2023-01-19T13:21:30.563Z,100025.47
2023-01-19T13:24:02.331Z,100029.78
2023-01-19T13:26:42.504Z,100017.63
2023-01-19T13:29:21.836Z,100026.13
2023-01-19T13:31:49.570Z,100026.84
2023-01-19T13:34:19.785Z,100028.53
2023-01-19T13:36:51.694Z,100026.72
2023-01-19T13:39:26.658Z,100031.78
2023-01-19T13:41:57.173Z,100026.72
2023-01-19T13:44:34.979Z,100031.03
2023-01-19T13:47:04.341Z,100037.88
2023-01-19T13:49:35.287Z,100034.47
2023-01-19T13:52:07.789Z,100037.03
2023-01-19T13:54:34.224Z,100048.16
2023-01-19T13:57:00.683Z,100048.19
2023-01-19T13:59:27.499Z,100049.06
2023-01-19T14:01:54.248Z,100049.13
2023-01-19T14:04:32.670Z,100049.06
2023-01-19T14:07:23.176Z,100060.25
2023-01-19T14:10:02.158Z,100061.97
2023-01-19T14:12:28.662Z,100061.13
2023-01-19T14:14:55.158Z,100063.69
2023-01-19T14:17:28.365Z,100064.53
2023-01-19T14:20:00.916Z,100069.69
2023-01-19T14:22:44.849Z,100077.41
2023-01-19T14:25:34.588Z,100079.13
2023-01-19T14:28:30.003Z,100078.25
2023-01-19T14:31:02.387Z,100082.47
2023-01-19T14:33:45.224Z,100093.47
2023-01-19T14:36:38.106Z,100090.91
2023-01-19T14:39:06.059Z,100086.66
2023-01-19T14:41:49.296Z,100091.81
2023-01-19T14:44:29.856Z,100100.44
2023-01-19T14:46:58.137Z,100104.78
2023-01-19T14:49:32.576Z,100100.47
2023-01-19T14:52:01.188Z,100109.97
2023-01-19T14:54:39.160Z,100114.13
2023-01-19T14:57:10.758Z,100112.22
2023-01-19T14:59:37.177Z,100120.72
2023-01-19T15:02:03.785Z,100113.84
2023-01-19T15:04:30.201Z,100116.56
2023-01-19T15:06:56.720Z,100115.84
2023-01-19T15:09:23.476Z,100128.84
2023-01-19T15:11:51.537Z,100131.44
2023-01-19T15:14:20.065Z,100122.91
2023-01-19T15:16:47.381Z,100127.25
2023-01-19T15:19:15.556Z,100133.31
2023-01-19T15:21:42.276Z,100141.16
2023-01-19T15:24:13.039Z,100137.75
2023-01-19T15:26:41.955Z,100147.28
2023-01-19T15:29:25.876Z,100152.56
2023-01-19T15:31:52.767Z,100157.72
2023-01-19T15:34:19.264Z,100159.47
2023-01-19T15:36:45.870Z,100156.03
2023-01-19T15:39:12.368Z,100168.09
2023-01-19T15:41:40.029Z,100164.56
2023-01-19T15:44:10.049Z,100164.53
2023-01-19T15:46:37.053Z,100169.78
2023-01-19T15:49:05.570Z,100175.91
2023-01-19T15:51:32.669Z,100171.66
2023-01-19T15:53:59.025Z,100174.31
2023-01-19T15:56:28.305Z,100189.00
2023-01-19T15:58:55.603Z,100198.50
2023-01-19T16:01:24.357Z,100190.75
2023-01-19T16:03:50.834Z,100198.53
2023-01-19T16:06:17.916Z,100199.38
2023-01-19T16:08:44.997Z,100200.25
2023-01-19T16:11:14.686Z,100217.50
2023-01-19T16:13:48.310Z,100215.78
2023-01-19T16:16:18.004Z,100216.63
2023-01-19T16:18:44.780Z,100212.31
2023-01-19T16:21:11.512Z,100224.38
2023-01-19T16:23:38.119Z,100216.69
2023-01-19T16:26:07.877Z,100216.69
2023-01-19T16:28:35.625Z,100215.81
2023-01-19T16:31:02.355Z,100221.00
2023-01-19T16:33:28.771Z,100228.78
2023-01-19T16:35:55.275Z,100236.56
2023-01-19T16:38:23.115Z,100235.78
2023-01-19T16:40:49.594Z,100242.66
2023-01-19T16:43:16.444Z,100241.72
2023-01-19T16:46:00.564Z,100244.31
2023-01-19T16:48:27.835Z,100246.06
2023-01-19T16:50:58.402Z,100251.28
2023-01-19T16:53:24.757Z,100252.16
2023-01-19T16:55:52.968Z,100257.28
2023-01-19T16:58:19.542Z,100256.44
2023-01-19T17:00:45.975Z,100260.78
2023-01-19T17:03:12.744Z,100259.06
2023-01-19T17:05:39.088Z,100268.56
2023-01-19T17:08:05.576Z,100265.09
2023-01-19T17:10:36.165Z,100273.78
2023-01-19T17:13:04.027Z,100275.47
2023-01-19T17:15:30.884Z,100282.31
2023-01-19T17:17:57.363Z,100283.19
2023-01-19T17:20:23.865Z,100296.13
2023-01-19T17:22:50.367Z,100288.31
2023-01-19T17:25:16.869Z,100300.38
2023-01-19T17:27:43.219Z,100303.81
2023-01-19T17:30:10.371Z,100296.94
2023-01-19T17:32:37.041Z,100310.81
2023-01-19T17:35:03.630Z,100302.22
2023-01-19T17:37:30.059Z,100310.88
2023-01-19T17:39:56.414Z,100311.75
2023-01-19T17:42:24.260Z,100314.34
2023-01-19T17:44:50.657Z,100321.28
2023-01-19T17:47:17.107Z,100324.75
2023-01-19T17:49:43.493Z,100327.34
2023-01-19T17:52:09.833Z,100327.38
2023-01-19T17:54:36.193Z,100329.13
2023-01-19T17:57:02.599Z,100337.75
2023-01-19T17:59:29.440Z,100337.78
2023-01-19T18:01:55.810Z,100331.78
2023-01-19T18:04:22.332Z,100328.34
2023-01-19T18:06:50.073Z,100334.41
2023-01-19T18:09:16.429Z,100333.56
2023-01-19T18:11:43.018Z,100327.50
2023-01-19T18:14:09.434Z,100339.53
2023-01-19T18:16:36.048Z,100342.09
2023-01-19T18:19:02.501Z,100346.41
2023-01-19T18:21:30.371Z,100353.31
2023-01-19T18:24:02.350Z,100349.03
2023-01-19T18:26:29.477Z,100347.28
2023-01-19T18:28:56.898Z,100358.50
2023-01-19T18:31:24.150Z,100363.72
2023-01-19T18:33:50.529Z,100362.88
2023-01-19T18:36:17.782Z,100361.16
2023-01-19T18:38:45.056Z,100369.75
2023-01-19T18:41:15.566Z,100371.50
2023-01-19T18:43:42.438Z,100360.25
2023-01-19T18:46:09.069Z,100365.41
2023-01-19T18:48:37.080Z,100358.56
2023-01-19T18:51:21.709Z,100360.34
2023-01-19T18:53:48.378Z,100366.34
2023-01-19T18:56:16.077Z,100363.78
2023-01-19T18:58:43.965Z,100357.75
2023-01-19T19:01:25.914Z,100359.53
2023-01-19T19:03:54.073Z,100356.06
2023-01-19T19:06:21.269Z,100350.94
2023-01-19T19:08:51.610Z,100363.88
2023-01-19T19:11:19.499Z,100361.31
2023-01-19T19:13:46.079Z,100360.41
2023-01-19T19:16:14.576Z,100368.13
2023-01-19T19:18:41.359Z,100374.16
2023-01-19T19:21:12.101Z,100368.97
2023-01-19T19:23:38.877Z,100376.72
2023-01-19T19:26:11.379Z,100367.28
2023-01-19T19:28:39.311Z,100367.28
2023-01-19T19:31:07.667Z,100367.28
2023-01-19T19:33:34.456Z,100377.59
2023-01-19T19:36:00.869Z,100383.59
2023-01-19T19:38:28.455Z,100383.59
2023-01-19T19:40:57.144Z,100394.84
2023-01-19T19:43:24.601Z,100385.38
2023-01-19T19:46:02.612Z,100387.09
2023-01-19T19:48:29.544Z,100392.28
2023-01-19T19:50:58.617Z,100383.66
2023-01-19T19:53:27.553Z,100391.44
2023-01-19T19:55:59.613Z,100399.16
2023-01-19T19:58:27.607Z,100399.16
2023-01-19T20:00:54.379Z,100397.50
2023-01-19T20:03:21.164Z,100398.34
2023-01-19T20:05:48.022Z,100402.69
2023-01-19T20:08:14.756Z,100407.03
2023-01-19T20:10:41.120Z,100401.00
2023-01-19T20:13:09.263Z,100414.75
2023-01-19T20:15:39.379Z,100413.06
2023-01-19T20:18:06.473Z,100408.78
2023-01-19T20:20:34.269Z,100416.53
2023-01-19T20:23:01.414Z,100420.81
2023-01-19T20:25:28.803Z,100418.22
2023-01-19T20:27:56.885Z,100420.81
2023-01-19T20:30:23.451Z,100427.75
2023-01-19T20:32:51.313Z,100428.59
2023-01-19T20:35:18.221Z,100425.16
2023-01-19T20:37:44.643Z,100420.84
2023-01-19T20:40:11.100Z,100432.03
2023-01-19T20:42:41.211Z,100439.78
2023-01-19T20:45:08.628Z,100442.34
2023-01-19T20:47:35.164Z,100446.66
2023-01-19T20:50:01.570Z,100455.28
2023-01-19T20:52:28.062Z,100452.72
2023-01-19T20:54:54.747Z,100454.44
2023-01-19T20:57:21.221Z,100454.44
2023-01-19T20:59:47.604Z,100453.59
2023-01-19T21:02:15.902Z,100457.03
2023-01-19T21:04:42.333Z,100455.31
2023-01-19T21:07:09.045Z,100469.97
2023-01-19T21:09:37.423Z,100464.81
2023-01-19T21:12:04.074Z,100474.31
2023-01-19T21:14:30.645Z,100477.75
2023-01-19T21:16:58.503Z,100490.66
2023-01-19T21:19:25.606Z,100488.94
2023-01-19T21:21:52.035Z,100488.91
2023-01-19T21:24:18.568Z,100500.09
2023-01-19T21:26:44.976Z,100501.81
2023-01-19T21:29:13.250Z,100504.41
2023-01-19T21:31:41.026Z,100507.88
2023-01-19T21:34:07.587Z,100520.78
2023-01-19T21:36:33.973Z,100520.78
2023-01-19T21:39:00.969Z,100521.63
2023-01-19T21:41:28.361Z,100524.22
2023-01-19T21:43:54.962Z,100525.91
2023-01-19T21:46:29.057Z,100525.91
2023-01-19T21:48:57.340Z,100535.41
2023-01-19T21:51:23.740Z,100544.03
2023-01-19T21:53:52.164Z,100543.16
2023-01-19T21:56:18.758Z,100548.31
2023-01-19T21:59:04.224Z,100551.78
2023-01-19T22:01:31.885Z,100556.09
2023-01-19T22:03:58.686Z,100559.53
2023-01-19T22:06:26.400Z,100559.50
2023-01-19T22:08:54.497Z,100567.25
2023-01-19T22:11:21.604Z,100568.97
2023-01-19T22:13:48.451Z,100576.75
2023-01-19T22:16:17.996Z,100570.72
2023-01-19T22:18:49.315Z,100581.03
2023-01-19T22:21:18.292Z,100579.31
2023-01-19T22:23:50.737Z,100581.91
2023-01-19T22:26:17.653Z,100581.88
2023-01-19T22:28:44.696Z,100589.66
2023-01-19T22:31:17.730Z,100593.06
2023-01-19T22:33:44.902Z,100605.13
2023-01-19T22:36:20.084Z,100595.66
2023-01-19T22:38:57.900Z,100600.81
2023-01-19T22:41:32.197Z,100600.81
2023-01-19T22:44:01.162Z,100607.69
2023-01-19T22:46:30.693Z,100599.94
2023-01-19T22:48:57.775Z,100605.97
2023-01-19T22:51:25.733Z,100605.97
2023-01-19T22:53:52.906Z,100606.84
2023-01-19T22:56:23.342Z,100609.41
2023-01-19T22:58:49.958Z,100622.34
2023-01-19T23:01:22.196Z,100624.06
2023-01-19T23:03:49.486Z,100626.59
2023-01-19T23:06:20.019Z,100619.72
2023-01-19T23:08:46.451Z,100628.34
2023-01-19T23:11:19.643Z,100629.19
2023-01-19T23:13:46.224Z,100626.59
2023-01-19T23:16:14.068Z,100629.19
2023-01-19T23:18:41.505Z,100628.31
2023-01-19T23:21:12.668Z,100636.91
2023-01-19T23:23:40.215Z,100630.03
2023-01-19T23:26:08.279Z,100636.06
2023-01-19T23:28:34.793Z,100642.91
2023-01-19T23:31:01.355Z,100639.44
2023-01-19T23:33:27.816Z,100647.22
2023-01-19T23:35:55.653Z,100648.94
2023-01-19T23:38:22.662Z,100655.84
2023-01-19T23:40:49.125Z,100651.50
2023-01-19T23:43:15.949Z,100658.41
2023-01-19T23:45:42.400Z,100667.03
2023-01-19T23:48:08.747Z,100662.69
2023-01-19T23:50:39.461Z,100666.97
2023-01-19T23:53:05.813Z,100665.22
2023-01-19T23:55:32.338Z,100660.06
2023-01-19T23:57:58.714Z,100682.41
